Time;durP1;ratioP1;P1;durP2;ratioP2;P2;SDS_P1;SDS_P2;PMS_P1;PMS_P2;Temp;Humidity;BMP_temperature;BMP_pressure;BME280_temperature;BME280_humidity;BME280_pressure;Samples;Min_cycle;Max_cycle;Signal;HPM_P1;HPM_P2
2022/04/11 00:01:23;;;;;;;13.68;5.82;;;;;;;0.11;85.93;99727.19;4991415;28;20049;-50
2022/04/11 00:03:48;;;;;;;8.52;5.57;;;;;;;0.14;86.59;99732.13;4988097;28;20459;-52
2022/04/11 00:06:14;;;;;;;7.57;5.13;;;;;;;0.42;85.98;99723.91;4994514;28;20056;-51
2022/04/11 00:08:40;;;;;;;10.15;5.50;;;;;;;0.48;85.82;99723.25;4994712;28;20431;-53
2022/04/11 00:11:05;;;;;;;13.07;5.50;;;;;;;0.61;84.98;99710.38;4988149;28;20054;-53
2022/04/11 00:13:30;;;;;;;9.50;5.70;;;;;;;0.67;82.99;99708.88;4999769;28;20038;-53
2022/04/11 00:15:56;;;;;;;8.82;5.60;;;;;;;0.81;82.65;99712.69;4993501;28;20481;-52
2022/04/11 00:18:21;;;;;;;8.65;6.03;;;;;;;0.85;81.27;99711.34;4998718;28;20038;-52
2022/04/11 00:20:47;;;;;;;9.40;5.53;;;;;;;0.79;82.14;99702.28;4993432;28;20054;-51
2022/04/11 00:23:13;;;;;;;7.80;5.63;;;;;;;0.72;82.14;99708.38;4995078;28;20411;-55
2022/04/11 00:25:38;;;;;;;11.05;5.63;;;;;;;0.65;84.05;99700.34;4993379;28;20742;-50
2022/04/11 00:28:04;;;;;;;11.85;6.28;;;;;;;0.54;84.99;99700.66;5000865;28;20042;-50
2022/04/11 00:30:29;;;;;;;18.42;7.40;;;;;;;0.53;85.48;99699.84;4993836;28;20646;-51
2022/04/11 00:32:55;;;;;;;14.73;6.82;;;;;;;0.68;85.97;99696.53;4998433;28;20030;-49
2022/04/11 00:35:21;;;;;;;46.33;17.58;;;;;;;0.66;84.35;99693.25;4990009;28;20050;-51
2022/04/11 00:37:46;;;;;;;10.45;5.97;;;;;;;0.63;84.84;99692.59;4990957;28;20034;-52
2022/04/11 00:40:11;;;;;;;8.55;6.03;;;;;;;0.76;86.12;99694.69;4991557;28;20093;-52
2022/04/11 00:42:37;;;;;;;10.07;5.85;;;;;;;0.72;84.49;99693.38;4989816;28;20033;-53
2022/04/11 00:45:03;;;;;;;12.25;6.63;;;;;;;0.59;85.17;99691.25;4989136;28;20034;-49
2022/04/11 00:47:29;;;;;;;13.85;6.45;;;;;;;0.46;84.97;99693.59;4990897;28;20077;-52
2022/04/11 00:49:56;;;;;;;11.82;6.88;;;;;;;0.33;86.03;99690.63;5005409;28;20507;-51
2022/04/11 00:52:21;;;;;;;17.67;8.07;;;;;;;0.46;87.34;99680.41;4994980;28;20048;-49
2022/04/11 00:54:47;;;;;;;14.82;7.32;;;;;;;0.58;88.35;99683.53;4991880;28;20034;-51
2022/04/11 00:57:13;;;;;;;24.70;10.25;;;;;;;0.60;87.93;99685.00;4989304;28;20417;-52
2022/04/11 00:59:38;;;;;;;17.20;8.40;;;;;;;0.48;85.76;99685.53;4978844;28;20034;-53
2022/04/11 01:02:04;;;;;;;18.88;8.65;;;;;;;0.37;86.07;99687.47;4978234;28;20048;-50
2022/04/11 01:04:30;;;;;;;14.85;7.85;;;;;;;0.32;87.53;99688.97;4991984;28;20049;-52
2022/04/11 01:06:56;;;;;;;14.35;7.50;;;;;;;0.72;87.03;99682.00;5001433;28;20357;-49
2022/04/11 01:09:24;;;;;;;18.38;7.57;;;;;;;0.67;85.78;99684.31;4994730;28;20042;-51
2022/04/11 01:11:51;;;;;;;16.67;7.68;;;;;;;0.73;86.16;99678.41;4990568;28;20069;-51
2022/04/11 01:14:16;;;;;;;17.52;7.13;;;;;;;0.77;85.63;99674.41;4994902;28;20026;-50
2022/04/11 01:16:51;;;;;;;13.40;6.18;;;;;;;0.83;85.06;99668.47;5001576;28;20100;-50
2022/04/11 01:19:17;;;;;;;9.70;6.28;;;;;;;1.15;85.96;99669.34;4995785;28;20029;-53
2022/04/11 01:21:43;;;;;;;10.00;6.38;;;;;;;1.03;85.05;99663.63;4990409;28;20042;-51
2022/04/11 01:24:09;;;;;;;8.70;5.80;;;;;;;1.33;85.86;99662.03;4997381;28;20041;-53
2022/04/11 01:26:34;;;;;;;11.63;5.82;;;;;;;1.07;84.62;99657.00;4991990;28;20042;-54
2022/04/11 01:28:59;;;;;;;8.57;5.55;;;;;;;0.90;85.07;99655.41;4994733;28;20512;-52
2022/04/11 01:31:25;;;;;;;11.23;6.82;;;;;;;0.70;85.49;99662.88;4992472;28;20460;-51
2022/04/11 01:33:50;;;;;;;16.98;6.32;;;;;;;0.58;86.56;99665.88;4990192;28;20042;-49
2022/04/11 01:36:16;;;;;;;10.02;5.95;;;;;;;0.50;87.39;99657.13;4989974;28;20053;-53
2022/04/11 01:38:41;;;;;;;12.40;7.28;;;;;;;0.45;87.09;99657.66;5000642;28;20476;-50
2022/04/11 01:41:07;;;;;;;14.50;7.75;;;;;;;0.40;87.49;99660.78;4995585;28;20053;-49
2022/04/11 01:43:32;;;;;;;20.77;9.15;;;;;;;0.28;87.06;99661.28;4995017;28;20221;-51
2022/04/11 01:45:58;;;;;;;19.17;8.35;;;;;;;0.19;88.02;99661.28;4993390;28;20493;-51
2022/04/11 01:48:23;;;;;;;18.60;9.23;;;;;;;0.12;88.41;99662.91;4996667;28;20033;-50
2022/04/11 01:50:48;;;;;;;23.30;9.32;;;;;;;0.14;88.81;99663.59;4988151;28;20042;-51
2022/04/11 01:53:15;;;;;;;18.65;9.20;;;;;;;0.13;89.14;99655.84;4998057;28;20035;-49
2022/04/11 01:55:40;;;;;;;16.35;8.07;;;;;;;0.17;89.32;99652.69;4992908;28;20129;-52
2022/04/11 01:58:06;;;;;;;21.00;8.68;;;;;;;0.25;89.78;99638.72;4994763;28;20041;-50
2022/04/11 02:00:32;;;;;;;22.85;9.35;;;;;;;0.23;89.09;99640.69;4991879;28;20064;-49
2022/04/11 02:02:59;;;;;;;16.50;8.10;;;;;;;0.27;90.10;99638.53;4995377;28;20034;-50
2022/04/11 02:05:25;;;;;;;20.23;9.73;;;;;;;0.21;89.40;99640.84;4989530;28;20082;-52
2022/04/11 02:07:50;;;;;;;18.02;8.15;;;;;;;0.25;90.23;99641.34;4994807;28;20026;-51
2022/04/11 02:10:16;;;;;;;12.27;7.30;;;;;;;0.57;93.03;99640.47;4991152;28;20042;-52
2022/04/11 02:12:41;;;;;;;12.93;7.70;;;;;;;0.60;91.48;99637.53;4989842;28;20037;-51
2022/04/11 02:15:11;;;;;;;12.70;7.20;;;;;;;0.60;89.75;99632.25;4994772;28;20087;-51
2022/04/11 02:17:36;;;;;;;13.98;7.03;;;;;;;0.57;89.38;99643.09;4995565;28;20125;-53
2022/04/11 02:20:02;;;;;;;11.10;7.03;;;;;;;0.65;89.32;99639.66;4994199;28;20034;-50
2022/04/11 02:22:29;;;;;;;10.70;6.28;;;;;;;0.67;88.49;99632.38;4995446;28;20034;-51
2022/04/11 02:24:55;;;;;;;14.23;7.13;;;;;;;0.66;88.18;99628.09;4996236;28;20127;-52
2022/04/11 02:27:20;;;;;;;18.08;7.55;;;;;;;0.77;89.37;99629.56;4989094;28;20485;-51
2022/04/11 02:29:45;;;;;;;11.85;6.80;;;;;;;0.71;87.82;99632.88;4988604;28;20049;-52
2022/04/11 02:32:11;;;;;;;18.00;8.82;;;;;;;0.63;87.82;99626.63;4995495;28;20092;-49
2022/04/11 02:34:36;;;;;;;15.15;8.00;;;;;;;0.59;88.13;99632.41;4989169;28;20034;-51
2022/04/11 02:37:02;;;;;;;20.23;8.95;;;;;;;0.56;88.29;99628.28;4998156;28;20390;-52
2022/04/11 02:39:28;;;;;;;15.23;7.80;;;;;;;0.53;88.83;99631.25;4991081;28;20047;-51
2022/04/11 02:41:54;;;;;;;17.48;8.57;;;;;;;0.45;89.47;99628.66;4999396;28;20425;-51
2022/04/11 02:44:19;;;;;;;17.33;8.40;;;;;;;0.42;90.03;99626.31;4988801;28;20034;-50
2022/04/11 02:46:44;;;;;;;17.55;8.90;;;;;;;0.39;90.54;99630.13;4988805;28;20100;-53
2022/04/11 02:49:10;;;;;;;15.95;8.73;;;;;;;0.38;90.54;99632.94;4995200;28;20046;-51
2022/04/11 02:51:35;;;;;;;17.60;9.45;;;;;;;0.47;90.87;99626.66;4992412;28;20505;-50
2022/04/11 02:54:07;;;;;;;19.40;8.90;;;;;;;0.45;90.33;99623.38;4994773;28;20042;-49
2022/04/11 02:56:33;;;;;;;11.43;7.60;;;;;;;0.42;90.24;99626.31;4990375;28;20046;-52
2022/04/11 02:58:59;;;;;;;14.50;8.80;;;;;;;0.47;90.01;99628.47;4988837;28;20096;-53
2022/04/11 03:01:24;;;;;;;16.77;8.57;;;;;;;0.47;90.19;99626.66;4992113;28;20042;-51
2022/04/11 03:03:49;;;;;;;19.25;8.73;;;;;;;0.52;90.10;99623.50;4992454;28;20029;-54
2022/04/11 03:06:15;;;;;;;21.23;9.68;;;;;;;0.48;89.46;99612.47;5000849;28;20545;-52
2022/04/11 03:08:41;;;;;;;14.98;8.85;;;;;;;0.40;90.63;99620.38;4994201;28;20376;-52
2022/04/11 03:11:06;;;;;;;16.05;8.85;;;;;;;0.35;91.10;99623.56;4988186;28;20113;-51
2022/04/11 03:13:31;;;;;;;19.08;9.60;;;;;;;0.39;90.81;99616.13;4999730;28;20626;-50
2022/04/11 03:15:57;;;;;;;21.25;9.52;;;;;;;0.39;90.89;99618.75;4987852;28;20449;-52
2022/04/11 03:18:22;;;;;;;15.07;9.43;;;;;;;0.42;91.20;99613.97;4993523;28;20038;-47
2022/04/11 03:20:47;;;;;;;19.80;8.82;;;;;;;0.39;90.66;99602.94;4996180;28;20045;-51
2022/04/11 03:23:15;;;;;;;18.55;9.68;;;;;;;0.34;91.83;99599.97;4993515;28;20431;-51
2022/04/11 03:25:40;;;;;;;18.00;9.40;;;;;;;0.35;91.45;99606.88;4988413;28;20045;-52
2022/04/11 03:28:07;;;;;;;16.17;9.65;;;;;;;0.37;92.10;99608.34;4988341;28;20034;-51
2022/04/11 03:30:32;;;;;;;18.92;10.55;;;;;;;0.55;94.03;99595.00;4992463;28;20050;-54
2022/04/11 03:32:57;;;;;;;21.80;9.88;;;;;;;0.45;92.33;99597.00;4996402;28;20049;-49
2022/04/11 03:35:23;;;;;;;23.42;9.82;;;;;;;0.56;93.24;99601.09;4994329;28;20054;-51
2022/04/11 03:37:49;;;;;;;17.33;9.68;;;;;;;0.69;94.22;99603.19;4993562;28;20543;-57
2022/04/11 03:40:14;;;;;;;21.80;10.85;;;;;;;0.53;90.66;99596.16;4997151;28;20096;-50
2022/04/11 03:42:40;;;;;;;21.92;10.82;;;;;;;0.53;90.11;99596.16;4992484;28;20039;-53
2022/04/11 03:45:10;;;;;;;23.00;10.75;;;;;;;0.53;90.17;99593.53;4990233;28;20428;-54
2022/04/11 03:47:36;;;;;;;24.20;10.77;;;;;;;0.60;91.15;99595.31;4986305;28;20045;-51
2022/04/11 03:50:01;;;;;;;21.52;11.13;;;;;;;0.54;89.88;99595.97;4991715;28;20046;-50
2022/04/11 03:52:27;;;;;;;17.48;10.80;;;;;;;0.43;89.71;99593.69;4998650;28;20030;-51
2022/04/11 03:54:52;;;;;;;28.15;10.10;;;;;;;0.38;90.19;99594.19;4996006;28;20415;-51
2022/04/11 03:57:17;;;;;;;21.48;8.85;;;;;;;0.30;90.75;99596.88;5003338;28;20077;-53
2022/04/11 03:59:43;;;;;;;22.23;9.32;;;;;;;0.28;90.96;99598.03;4998933;28;20037;-52
2022/04/11 04:02:09;;;;;;;14.57;9.15;;;;;;;0.16;91.19;99600.97;4999200;28;20038;-51
2022/04/11 04:04:37;;;;;;;20.40;10.00;;;;;;;0.10;91.96;99600.81;4997579;28;20026;-51
2022/04/11 04:07:03;;;;;;;19.17;10.48;;;;;;;0.01;92.63;99604.47;5000320;28;20066;-52
2022/04/11 04:09:28;;;;;;;22.98;10.68;;;;;;;-0.06;92.73;99605.09;4996663;28;20519;-50
2022/04/11 04:11:54;;;;;;;24.13;10.15;;;;;;;-0.10;93.31;99600.31;4991870;28;20046;-49
2022/04/11 04:14:19;;;;;;;18.10;9.93;;;;;;;-0.02;94.55;99595.06;4995621;28;20445;-52
2022/04/11 04:16:45;;;;;;;22.13;10.32;;;;;;;-0.06;93.64;99599.00;4994674;28;20054;-53
2022/04/11 04:19:10;;;;;;;15.35;9.70;;;;;;;-0.17;93.43;99602.00;5002180;28;20427;-51
2022/04/11 04:21:36;;;;;;;19.83;9.48;;;;;;;-0.13;93.34;99595.38;4993941;28;20039;-53
2022/04/11 04:24:01;;;;;;;18.02;9.48;;;;;;;0.05;94.13;99606.59;4993583;28;20039;-54
2022/04/11 04:26:27;;;;;;;21.05;10.57;;;;;;;0.14;94.42;99600.31;4989411;28;20053;-53
2022/04/11 04:28:52;;;;;;;21.95;10.20;;;;;;;0.00;92.69;99603.63;4991911;28;20054;-51
2022/04/11 04:31:18;;;;;;;20.73;9.55;;;;;;;-0.10;92.54;99597.69;4993859;28;20054;-52
2022/04/11 04:33:43;;;;;;;17.15;11.55;;;;;;;-0.16;93.13;99601.00;4990675;28;20049;-52
2022/04/11 04:36:08;;;;;;;23.10;11.57;;;;;;;-0.20;93.48;99600.50;4997616;28;20057;-53
2022/04/11 04:38:34;;;;;;;22.77;12.18;;;;;;;-0.09;93.73;99597.53;4998047;28;20081;-53
2022/04/11 04:40:59;;;;;;;18.88;10.77;;;;;;;-0.19;92.70;99606.59;4991412;28;20046;-55
2022/04/11 04:43:25;;;;;;;21.48;11.57;;;;;;;-0.13;94.18;99601.47;4990657;28;20350;-52
2022/04/11 04:45:51;;;;;;;20.05;10.73;;;;;;;-0.26;92.61;99609.88;4997265;28;20118;-54
2022/04/11 04:48:16;;;;;;;15.70;10.98;;;;;;;-0.31;93.91;99601.63;4991654;28;20030;-52
2022/04/11 04:50:42;;;;;;;21.17;12.55;;;;;;;-0.37;93.70;99609.38;4992157;28;20041;-52
2022/04/11 04:53:07;;;;;;;17.10;11.07;;;;;;;-0.28;95.56;99611.00;5000207;28;20030;-52
2022/04/11 04:55:33;;;;;;;22.15;11.75;;;;;;;-0.31;95.04;99612.16;4997757;28;20042;-51
2022/04/11 04:57:58;;;;;;;21.15;12.20;;;;;;;-0.48;94.80;99600.78;4996533;28;20131;-51
2022/04/11 05:00:24;;;;;;;23.50;12.27;;;;;;;-0.44;94.80;99596.03;4990200;28;20042;-50
2022/04/11 05:02:49;;;;;;;24.90;12.82;;;;;;;-0.31;95.42;99604.25;4997039;28;20033;-51
2022/04/11 05:05:14;;;;;;;21.70;12.57;;;;;;;-0.09;97.35;99599.34;4991424;28;20033;-50
2022/04/11 05:07:40;;;;;;;25.67;14.60;;;;;;;-0.28;96.13;99601.28;4996320;28;20034;-51
2022/04/11 05:10:06;;;;;;;22.65;13.70;;;;;;;-0.40;94.58;99601.78;4992131;28;20037;-52
2022/04/11 05:12:42;;;;;;;29.08;14.02;;;;;;;-0.32;96.24;99604.44;5001797;28;20468;-50
2022/04/11 05:15:07;;;;;;;27.90;14.52;;;;;;;-0.09;96.11;99599.34;4993496;28;20037;-51
2022/04/11 05:17:33;;;;;;;28.45;15.60;;;;;;;0.11;94.93;99603.28;4990942;28;20038;-53
2022/04/11 05:19:58;;;;;;;26.27;14.40;;;;;;;0.32;93.35;99601.94;4990889;28;20034;-51
2022/04/11 05:22:24;;;;;;;32.53;14.55;;;;;;;0.37;90.29;99589.91;4987010;28;20491;-50
2022/04/11 05:24:49;;;;;;;25.80;14.48;;;;;;;1.33;89.80;99601.28;4994661;28;20065;-50
2022/04/11 05:27:14;;;;;;;23.52;12.23;;;;;;;2.29;81.76;99601.72;4996455;28;20065;-50
2022/04/11 05:29:40;;;;;;;25.60;12.38;;;;;;;3.33;77.17;99607.84;4996012;28;20042;-53
2022/04/11 05:32:05;;;;;;;16.77;11.05;;;;;;;5.65;67.92;99610.50;4994894;28;20042;-51
2022/04/11 05:34:31;;;;;;;28.52;11.30;;;;;;;6.00;65.57;99603.22;4993110;28;20022;-53
2022/04/11 05:36:56;;;;;;;15.32;9.90;;;;;;;8.13;58.34;99597.16;5002265;28;20511;-51
2022/04/11 05:39:22;;;;;;;20.63;10.48;;;;;;;7.96;57.55;99604.06;4998137;28;20160;-50
2022/04/11 05:41:47;;;;;;;20.67;9.88;;;;;;;9.96;51.87;99616.13;4996648;28;20100;-51
2022/04/11 05:44:12;;;;;;;14.63;8.88;;;;;;;9.57;51.14;99618.31;4993351;28;20036;-50
2022/04/11 05:46:38;;;;;;;15.55;9.10;;;;;;;9.94;50.92;99619.03;4998518;28;20047;-51
2022/04/11 05:49:03;;;;;;;17.50;9.00;;;;;;;10.60;48.81;99626.28;4991034;28;20034;-53
2022/04/11 05:51:29;;;;;;;15.48;9.57;;;;;;;9.18;52.02;99627.66;4990059;28;20049;-51
2022/04/11 05:53:54;;;;;;;16.13;9.30;;;;;;;9.76;50.31;99627.13;4995080;28;20037;-53
2022/04/11 05:56:20;;;;;;;16.67;9.23;;;;;;;10.14;49.17;99624.09;4995783;28;20054;-50
2022/04/11 05:58:45;;;;;;;14.00;9.50;;;;;;;9.82;50.26;99626.22;4999513;28;20022;-52
2022/04/11 06:01:10;;;;;;;17.55;9.23;;;;;;;9.65;51.21;99619.84;4991372;28;20046;-52
2022/04/11 06:03:37;;;;;;;13.95;9.05;;;;;;;9.77;50.43;99612.69;4994499;28;20069;-53
2022/04/11 06:06:03;;;;;;;18.42;11.25;;;;;;;9.87;50.19;99622.84;4989439;28;20136;-52
2022/04/11 06:08:28;;;;;;;28.40;13.13;;;;;;;10.12;49.88;99615.47;4996614;28;20118;-53
2022/04/11 06:10:54;;;;;;;47.42;36.90;;;;;;;10.04;49.91;99618.47;4988374;28;20038;-52
2022/04/11 06:13:19;;;;;;;38.45;27.88;;;;;;;10.68;48.57;99612.50;4993271;28;20102;-52
2022/04/11 06:15:44;;;;;;;37.45;24.83;;;;;;;11.25;47.49;99609.97;4995593;28;20046;-52
2022/04/11 06:18:10;;;;;;;24.95;13.20;;;;;;;10.96;48.33;99615.31;4995575;28;20029;-52
2022/04/11 06:20:35;;;;;;;21.83;14.30;;;;;;;11.20;47.64;99609.88;4987702;28;20046;-52
2022/04/11 06:23:02;;;;;;;23.17;11.43;;;;;;;12.47;45.48;99614.06;4991722;28;20456;-51
2022/04/11 06:25:28;;;;;;;21.20;10.43;;;;;;;12.14;46.08;99614.88;5003059;28;20041;-49
2022/04/11 06:27:53;;;;;;;21.05;10.73;;;;;;;12.78;44.86;99609.16;4991966;28;20045;-52
2022/04/11 06:30:19;;;;;;;16.10;9.07;;;;;;;12.18;45.93;99616.03;4988519;28;20313;-52
2022/04/11 06:32:44;;;;;;;25.20;9.80;;;;;;;12.72;44.93;99618.22;4992647;28;20021;-51
2022/04/11 06:35:10;;;;;;;22.17;10.20;;;;;;;11.92;46.13;99616.66;4996488;28;20407;-52
2022/04/11 06:37:35;;;;;;;13.93;8.32;;;;;;;12.26;45.54;99615.63;5001930;28;20034;-52
2022/04/11 06:40:02;;;;;;;12.82;8.05;;;;;;;12.22;46.54;99608.28;4995582;28;20027;-52
2022/04/11 06:42:28;;;;;;;11.93;8.10;;;;;;;11.70;46.75;99609.25;4993503;28;20030;-52
2022/04/11 06:44:54;;;;;;;13.82;8.65;;;;;;;11.66;47.40;99608.09;4988532;28;20097;-50
2022/04/11 06:47:21;;;;;;;15.88;8.07;;;;;;;12.47;45.89;99610.56;4994512;28;20500;-53
2022/04/11 06:49:47;;;;;;;18.52;8.75;;;;;;;12.16;46.14;99601.22;4993053;28;20587;-54
2022/04/11 06:52:13;;;;;;;15.13;8.30;;;;;;;12.73;45.09;99604.53;4994725;28;20042;-53
2022/04/11 06:54:38;;;;;;;16.10;8.60;;;;;;;13.24;43.82;99601.69;4994712;28;20133;-51
2022/04/11 06:57:04;;;;;;;15.32;7.65;;;;;;;12.95;44.72;99607.25;4989285;28;20386;-53
2022/04/11 06:59:29;;;;;;;17.90;8.55;;;;;;;12.92;44.45;99598.84;4993103;28;20026;-53
2022/04/11 07:01:55;;;;;;;15.73;8.35;;;;;;;12.95;45.11;99609.94;4994584;28;20095;-53
2022/04/11 07:04:20;;;;;;;16.40;8.40;;;;;;;12.93;45.20;99600.50;4993729;28;20473;-51
2022/04/11 07:06:46;;;;;;;15.40;7.78;;;;;;;14.02;42.90;99606.84;4990589;28;20053;-53
2022/04/11 07:09:11;;;;;;;21.48;8.07;;;;;;;13.20;44.74;99605.13;4992802;28;20026;-52
2022/04/11 07:11:37;;;;;;;21.05;7.85;;;;;;;14.02;43.17;99607.66;4988492;28;20073;-49
2022/04/11 07:14:03;;;;;;;16.88;7.65;;;;;;;13.90;42.79;99598.09;4993553;28;20034;-53
2022/04/11 07:16:28;;;;;;;15.23;7.85;;;;;;;13.02;44.80;99596.28;4993434;28;20040;-51
2022/04/11 07:18:54;;;;;;;15.68;7.45;;;;;;;12.78;45.61;99592.19;4993559;28;20026;-53
2022/04/11 07:21:19;;;;;;;13.40;7.28;;;;;;;11.96;48.32;99588.25;4997083;28;20037;-53
2022/04/11 07:23:45;;;;;;;12.52;7.15;;;;;;;13.00;44.74;99590.34;4988721;28;20048;-53
2022/04/11 07:26:10;;;;;;;16.13;7.50;;;;;;;12.73;46.50;99591.06;4996110;28;20070;-53
2022/04/11 07:28:36;;;;;;;15.63;8.20;;;;;;;13.18;45.27;99583.84;4978657;28;20476;-51
2022/04/11 07:31:01;;;;;;;17.38;7.70;;;;;;;13.19;45.90;99577.41;4994888;28;20046;-51
2022/04/11 07:33:26;;;;;;;14.82;7.30;;;;;;;13.32;45.61;99589.69;4988848;28;20368;-53
2022/04/11 07:35:52;;;;;;;16.55;8.40;;;;;;;13.63;45.09;99590.00;4996329;28;20045;-51
2022/04/11 07:38:17;;;;;;;20.55;7.82;;;;;;;13.01;45.90;99586.59;4990202;28;20037;-52
2022/04/11 07:40:43;;;;;;;15.13;8.57;;;;;;;13.87;44.50;99585.16;4994257;28;20089;-52
2022/04/11 07:43:08;;;;;;;15.80;7.88;;;;;;;13.96;44.92;99587.13;4988685;28;20034;-52
2022/04/11 07:45:33;;;;;;;16.75;8.57;;;;;;;13.51;45.92;99580.22;4987549;28;20049;-51
2022/04/11 07:47:59;;;;;;;14.70;8.65;;;;;;;12.98;47.12;99592.50;4987969;28;20618;-53
2022/04/11 07:50:25;;;;;;;11.45;8.70;;;;;;;13.13;48.05;99583.78;4986277;28;20450;-50
2022/04/11 07:52:50;;;;;;;17.17;8.77;;;;;;;14.09;45.08;99587.78;4991261;28;20476;-52
2022/04/11 07:55:16;;;;;;;17.27;8.07;;;;;;;13.75;46.62;99593.38;4994650;28;20033;-51
2022/04/11 07:57:41;;;;;;;20.40;7.88;;;;;;;13.82;46.61;99592.09;4993964;28;20034;-52
2022/04/11 08:00:08;;;;;;;18.15;7.90;;;;;;;14.14;45.98;99590.50;4990112;28;20041;-49
2022/04/11 08:02:33;;;;;;;17.00;8.55;;;;;;;14.16;45.70;99581.09;5002647;28;20487;-51
2022/04/11 08:05:02;;;;;;;12.07;7.90;;;;;;;13.67;46.74;99583.06;5001536;28;20026;-53
2022/04/11 08:07:30;;;;;;;13.48;8.18;;;;;;;14.07;45.97;99571.03;5000184;28;20053;-53
2022/04/11 08:09:55;;;;;;;13.00;7.95;;;;;;;14.31;45.53;99569.63;4998839;28;20052;-53
2022/04/11 08:12:21;;;;;;;19.17;8.57;;;;;;;14.38;45.61;99567.50;5004245;28;20045;-50
2022/04/11 08:14:46;;;;;;;15.10;8.77;;;;;;;14.37;45.83;99567.75;4997916;28;20072;-53
2022/04/11 08:17:12;;;;;;;17.48;9.23;;;;;;;14.10;45.12;99565.13;5003658;28;20136;-53
2022/04/11 08:19:38;;;;;;;16.95;8.10;;;;;;;14.95;43.82;99566.00;5001385;28;20022;-53
2022/04/11 08:22:03;;;;;;;14.45;7.95;;;;;;;14.51;44.42;99563.56;4999605;28;20142;-53
2022/04/11 08:24:29;;;;;;;17.95;8.48;;;;;;;15.15;43.37;99562.56;5002938;28;20329;-54
2022/04/11 08:26:56;;;;;;;17.40;9.00;;;;;;;14.25;45.35;99562.53;4999672;28;20330;-53
2022/04/11 08:29:21;;;;;;;16.88;8.50;;;;;;;14.84;43.58;99564.31;5001352;28;20088;-53
2022/04/11 08:31:47;;;;;;;16.70;7.60;;;;;;;14.79;43.77;99551.59;5001169;28;20041;-53
2022/04/11 08:34:12;;;;;;;15.25;7.03;;;;;;;14.11;44.05;99553.28;4997460;28;20041;-53
2022/04/11 08:36:38;;;;;;;13.57;7.57;;;;;;;14.66;44.03;99550.19;4996811;28;20041;-53
2022/04/11 08:39:03;;;;;;;10.98;5.78;;;;;;;14.77;39.75;99548.34;4997895;28;20038;-53
2022/04/11 08:41:33;;;;;;;10.32;5.47;;;;;;;12.78;42.80;99544.63;4991467;28;20417;-50
2022/04/11 08:43:59;;;;;;;10.65;5.32;;;;;;;12.60;43.77;99548.38;4991020;28;20562;-54
2022/04/11 08:46:25;;;;;;;10.40;5.15;;;;;;;12.92;43.98;99539.66;4980733;28;20042;-50
2022/04/11 08:48:50;;;;;;;10.68;5.45;;;;;;;11.48;46.70;99541.19;4990424;28;20411;-52
2022/04/11 08:51:15;;;;;;;12.15;5.20;;;;;;;11.23;46.82;99545.84;4997270;28;20030;-53
2022/04/11 08:53:42;;;;;;;13.50;4.78;;;;;;;12.91;44.99;99538.03;4994201;28;20030;-53
2022/04/11 08:56:08;;;;;;;7.47;4.20;;;;;;;10.24;48.42;99539.69;5001812;28;20110;-51
2022/04/11 08:58:33;;;;;;;9.10;5.07;;;;;;;10.61;49.20;99532.22;4994166;28;20045;-51
2022/04/11 09:00:59;;;;;;;10.18;4.70;;;;;;;11.73;45.54;99535.44;4995010;28;20396;-52
2022/04/11 09:03:24;;;;;;;8.10;4.57;;;;;;;10.86;46.44;99540.00;4996700;28;20346;-53
2022/04/11 09:06:10;;;;;;;7.53;4.40;;;;;;;11.46;45.07;99533.38;4997499;28;20117;-53
2022/04/11 09:08:48;;;;;;;9.23;4.15;;;;;;;11.61;44.75;99524.78;4995539;28;20034;-52
2022/04/11 09:11:13;;;;;;;9.73;4.65;;;;;;;11.15;45.75;99521.25;5000405;28;20374;-52
2022/04/11 09:13:58;;;;;;;10.38;3.78;;;;;;;10.64;46.13;99518.34;4992711;28;20028;-52
2022/04/11 09:16:24;;;;;;;9.90;4.07;;;;;;;11.03;44.54;99513.22;4990375;28;20057;-52
2022/04/11 09:18:52;;;;;;;10.43;4.35;;;;;;;10.92;45.02;99516.78;4999490;28;20029;-52
2022/04/11 09:21:18;;;;;;;7.25;3.53;;;;;;;10.74;44.62;99515.06;4995339;28;20042;-51
2022/04/11 09:23:43;;;;;;;9.55;3.92;;;;;;;11.38;44.53;99507.75;4993167;28;20045;-51
2022/04/11 09:26:16;;;;;;;8.90;3.65;;;;;;;11.58;43.85;99503.78;4989147;28;20054;-51
2022/04/11 09:28:41;;;;;;;8.82;3.88;;;;;;;11.74;43.93;99507.56;4994953;28;20041;-53
2022/04/11 09:31:07;;;;;;;7.93;3.83;;;;;;;12.74;42.48;99501.25;4989852;28;20042;-51
2022/04/11 09:33:39;;;;;;;7.30;3.50;;;;;;;10.83;41.57;99505.59;4994588;28;20083;-52
2022/04/11 09:36:04;;;;;;;9.48;3.47;;;;;;;11.59;42.93;99492.00;4993035;28;20049;-53
2022/04/11 09:38:30;;;;;;;5.03;2.88;;;;;;;11.95;41.63;99501.47;4997523;28;20120;-53
2022/04/11 09:40:56;;;;;;;7.43;3.25;;;;;;;11.83;43.09;99506.91;4973129;28;20532;-51
2022/04/11 09:43:31;;;;;;;6.18;3.17;;;;;;;11.68;42.09;99505.81;4993985;28;20034;-52
2022/04/11 09:45:59;;;;;;;5.63;3.15;;;;;;;12.59;41.03;99514.50;4990709;28;20501;-51
2022/04/11 09:48:26;;;;;;;6.65;3.33;;;;;;;11.98;41.13;99510.91;4991414;28;20725;-52
2022/04/11 09:50:53;;;;;;;7.78;3.03;;;;;;;11.27;40.11;99503.22;4993563;28;20038;-49
2022/04/11 09:53:20;;;;;;;6.22;3.38;;;;;;;12.62;39.87;99492.47;4990449;28;20370;-52
2022/04/11 09:55:53;;;;;;;6.95;3.03;;;;;;;12.83;38.12;99495.41;4994934;28;20034;-50
2022/04/11 09:58:19;;;;;;;6.35;3.10;;;;;;;12.43;38.95;99491.16;4993701;28;20122;-52
2022/04/11 10:00:45;;;;;;;8.25;3.17;;;;;;;12.26;39.36;99494.69;4994215;28;20495;-53
2022/04/11 10:03:11;;;;;;;9.77;2.97;;;;;;;12.10;39.57;99492.84;4991031;28;20026;-50
2022/04/11 10:05:40;;;;;;;5.05;3.05;;;;;;;11.66;41.09;99498.84;4993790;28;20050;-52
2022/04/11 10:08:09;;;;;;;5.55;2.72;;;;;;;11.96;39.67;99486.19;4987652;28;20373;-50
2022/04/11 10:10:38;;;;;;;5.72;2.50;;;;;;;11.63;38.36;99477.84;4990889;28;20050;-51
2022/04/11 10:13:04;;;;;;;6.53;3.05;;;;;;;12.00;40.51;99474.69;4986529;28;20033;-53
2022/04/11 10:15:30;;;;;;;8.35;3.17;;;;;;;11.92;39.74;99482.34;4991358;28;20420;-55
2022/04/11 10:17:59;;;;;;;8.25;2.90;;;;;;;12.32;39.24;99465.19;4978274;28;20368;-50
2022/04/11 10:20:27;;;;;;;9.18;3.00;;;;;;;12.34;38.75;99474.66;4994827;28;20460;-52
2022/04/11 10:23:13;;;;;;;6.65;3.00;;;;;;;11.98;38.80;99457.19;4989162;28;20034;-50
2022/04/11 10:25:48;;;;;;;4.47;2.47;;;;;;;12.26;39.01;99470.50;4992153;28;20125;-51
2022/04/11 10:28:15;;;;;;;5.93;2.78;;;;;;;12.43;36.95;99466.94;4988541;28;20052;-52
2022/04/11 10:30:41;;;;;;;7.75;3.08;;;;;;;11.26;38.88;99461.38;4998790;28;20567;-53
2022/04/11 10:33:06;;;;;;;5.38;2.50;;;;;;;11.45;38.89;99461.97;4991172;28;20035;-50
2022/04/11 10:35:44;;;;;;;5.60;2.65;;;;;;;11.73;38.78;99452.19;4969301;28;20046;-53
2022/04/11 10:38:13;;;;;;;7.38;2.80;;;;;;;11.80;39.48;99450.97;4995916;28;20238;-54
2022/04/11 10:40:46;;;;;;;10.65;3.28;;;;;;;11.68;38.88;99449.44;4996047;28;20117;-52
2022/04/11 10:43:12;;;;;;;6.70;3.45;;;;;;;11.73;38.74;99446.84;4989601;28;20109;-52
2022/04/11 10:45:40;;;;;;;5.43;2.78;;;;;;;11.63;36.74;99448.31;4994895;28;20046;-52
2022/04/11 10:48:06;;;;;;;3.97;2.53;;;;;;;11.82;37.59;99440.00;4992877;28;20418;-51
2022/04/11 10:50:34;;;;;;;4.70;2.45;;;;;;;11.87;38.21;99438.22;4994613;28;20053;-54
2022/04/11 10:53:12;;;;;;;7.93;3.13;;;;;;;12.24;38.31;99426.13;4989680;28;20046;-52
2022/04/11 10:56:02;;;;;;;4.68;3.03;;;;;;;11.47;39.50;99434.88;4995434;28;20076;-52
2022/04/11 10:58:50;;;;;;;6.35;3.00;;;;;;;11.86;39.49;99436.63;5000814;28;20033;-51
2022/04/11 11:01:35;;;;;;;7.85;3.10;;;;;;;11.79;39.16;99435.13;4993543;28;20125;-50
2022/04/11 11:04:15;;;;;;;4.63;2.90;;;;;;;11.38;40.22;99432.59;4991872;28;20029;-51
2022/04/11 11:06:40;;;;;;;7.50;2.88;;;;;;;11.54;39.70;99416.75;4987793;28;20520;-52
2022/04/11 11:09:18;;;;;;;6.68;3.42;;;;;;;11.68;39.26;99425.28;4993952;28;20030;-51
2022/04/11 11:11:45;;;;;;;5.13;2.47;;;;;;;12.05;38.45;99423.72;4993731;28;20386;-52
2022/04/11 11:14:42;;;;;;;6.25;2.70;;;;;;;11.87;37.97;99414.06;4995024;28;20049;-53
2022/04/11 11:17:08;;;;;;;4.90;2.85;;;;;;;11.91;38.23;99397.47;4988571;28;20134;-52
2022/04/11 11:20:05;;;;;;;4.80;2.53;;;;;;;12.25;38.63;99403.56;4971754;28;20120;-52
2022/04/11 11:23:31;;;;;;;8.25;3.55;;;;;;;11.54;39.34;99387.22;4988488;28;20073;-53
2022/04/11 11:26:06;;;;;;;6.18;3.08;;;;;;;12.09;38.59;99391.81;4995453;28;20057;-53
2022/04/11 11:28:32;;;;;;;8.80;3.40;;;;;;;12.24;39.63;99386.63;4987483;28;20080;-51